Time;durP1;ratioP1;P1;durP2;ratioP2;P2;SDS_P1;SDS_P2;PMS_P1;PMS_P2;Temp;Humidity;BMP_temperature;BMP_pressure;BME280_temperature;BME280_humidity;BME280_pressure;Samples;Min_cycle;Max_cycle;Signal;HPM_P1;HPM_P2
2023/11/01 00:00:59;;;;;;;9.48;4.13;;;;;;;;;;5114179;28;20457;-32
2023/11/01 00:03:25;;;;;;;9.47;4.23;;;;;;;;;;5114141;28;20448;-32
2023/11/01 00:05:50;;;;;;;8.50;4.17;;;;;;;;;;5114399;28;20260;-36
2023/11/01 00:08:15;;;;;;;9.70;4.67;;;;;;;;;;5114308;28;20651;-32
2023/11/01 00:10:40;;;;;;;12.73;4.82;;;;;;;;;;5114593;28;20341;-32
2023/11/01 00:13:05;;;;;;;12.50;5.10;;;;;;;;;;5114510;28;20098;-32
2023/11/01 00:15:31;;;;;;;14.77;5.43;;;;;;;;;;5113960;28;20828;-32
2023/11/01 00:17:56;;;;;;;12.18;5.65;;;;;;;;;;5114233;28;20254;-36
2023/11/01 00:20:21;;;;;;;10.30;5.18;;;;;;;;;;5113955;28;20019;-32
2023/11/01 00:22:46;;;;;;;16.03;5.60;;;;;;;;;;5114462;28;20024;-32
2023/11/01 00:25:11;;;;;;;11.63;5.35;;;;;;;;;;5095937;28;20264;-32
2023/11/01 00:27:37;;;;;;;14.53;5.70;;;;;;;;;;5114385;28;20351;-32
2023/11/01 00:30:02;;;;;;;16.90;6.10;;;;;;;;;;5114359;28;20254;-32
2023/11/01 00:32:27;;;;;;;11.90;5.68;;;;;;;;;;5114144;28;20722;-32
2023/11/01 00:34:53;;;;;;;16.10;6.20;;;;;;;;;;5113785;28;20373;-32
2023/11/01 00:37:19;;;;;;;11.23;5.90;;;;;;;;;;5114104;28;20249;-32
2023/11/01 00:39:44;;;;;;;12.38;5.22;;;;;;;;;;5113717;28;20034;-33
2023/11/01 00:42:09;;;;;;;15.23;5.30;;;;;;;;;;5114301;28;20012;-32
2023/11/01 00:44:34;;;;;;;15.43;5.47;;;;;;;;;;5113723;28;20399;-32
2023/11/01 00:46:59;;;;;;;16.70;5.40;;;;;;;;;;5095391;28;20257;-32
2023/11/01 00:49:24;;;;;;;15.43;5.22;;;;;;;;;;5113701;28;20062;-32
2023/11/01 00:51:50;;;;;;;14.37;5.03;;;;;;;;;;5095268;28;20050;-32
2023/11/01 00:54:15;;;;;;;15.77;4.80;;;;;;;;;;5113504;28;20415;-32
2023/11/01 00:56:40;;;;;;;11.45;4.57;;;;;;;;;;5113602;28;20294;-33
2023/11/01 00:59:05;;;;;;;11.03;4.77;;;;;;;;;;5113585;28;20470;-32
2023/11/01 01:01:31;;;;;;;9.83;4.50;;;;;;;;;;5113350;28;20305;-31
2023/11/01 01:03:58;;;;;;;10.35;4.55;;;;;;;;;;5113172;28;20337;-31
2023/11/01 01:06:23;;;;;;;15.68;5.18;;;;;;;;;;5113253;28;20031;-32
2023/11/01 01:08:48;;;;;;;9.70;4.72;;;;;;;;;;5112945;28;20398;-31
2023/11/01 01:11:14;;;;;;;11.87;5.17;;;;;;;;;;5112855;28;20020;-31
2023/11/01 01:13:39;;;;;;;25.00;5.10;;;;;;;;;;5094599;28;20308;-33
2023/11/01 01:16:04;;;;;;;16.33;4.80;;;;;;;;;;5115581;28;20585;-33
2023/11/01 01:18:29;;;;;;;14.98;5.63;;;;;;;;;;5117357;28;20020;-33
2023/11/01 01:20:55;;;;;;;21.07;5.43;;;;;;;;;;5117808;28;20077;-33
2023/11/01 01:23:20;;;;;;;13.53;4.77;;;;;;;;;;5117269;28;20324;-33
2023/11/01 01:25:45;;;;;;;15.27;5.30;;;;;;;;;;5117236;28;20374;-33
2023/11/01 01:28:10;;;;;;;15.60;5.55;;;;;;;;;;5117208;28;20336;-33
2023/11/01 01:30:36;;;;;;;16.50;6.10;;;;;;;;;;5117103;28;20058;-33
2023/11/01 01:33:01;;;;;;;19.25;5.97;;;;;;;;;;5117089;28;20340;-34
2023/11/01 01:35:26;;;;;;;18.85;5.97;;;;;;;;;;5116910;28;20023;-33
2023/11/01 01:37:51;;;;;;;15.98;6.25;;;;;;;;;;5117219;28;20351;-34
2023/11/01 01:40:17;;;;;;;14.87;6.70;;;;;;;;;;5117482;28;20023;-34
2023/11/01 01:42:42;;;;;;;15.97;6.40;;;;;;;;;;5116893;28;20265;-33
2023/11/01 01:45:07;;;;;;;17.30;7.17;;;;;;;;;;5116724;28;20296;-33
2023/11/01 01:47:34;;;;;;;19.27;6.45;;;;;;;;;;5117361;28;20789;-34
2023/11/01 01:50:00;;;;;;;16.95;6.82;;;;;;;;;;5116490;28;20050;-33
2023/11/01 01:52:25;;;;;;;19.48;7.32;;;;;;;;;;5117181;28;20149;-33
2023/11/01 01:54:50;;;;;;;14.57;6.90;;;;;;;;;;5116581;28;20473;-33
2023/11/01 01:57:21;;;;;;;14.65;7.50;;;;;;;;;;5098684;28;20028;-34
2023/11/01 01:59:46;;;;;;;21.60;7.47;;;;;;;;;;5116551;28;20016;-33
2023/11/01 02:02:12;;;;;;;19.53;7.63;;;;;;;;;;5116847;28;20018;-33
2023/11/01 02:04:37;;;;;;;16.98;8.32;;;;;;;;;;5116324;28;20254;-34
2023/11/01 02:07:02;;;;;;;17.97;7.60;;;;;;;;;;5116369;28;20062;-33
2023/11/01 02:09:28;;;;;;;18.77;7.50;;;;;;;;;;5116649;28;20257;-33
2023/11/01 02:11:54;;;;;;;19.80;7.43;;;;;;;;;;5116514;28;20102;-33
2023/11/01 02:14:21;;;;;;;17.75;7.55;;;;;;;;;;5116778;28;20518;-33
2023/11/01 02:16:46;;;;;;;19.63;7.57;;;;;;;;;;5116189;28;20039;-34
2023/11/01 02:19:12;;;;;;;18.13;7.72;;;;;;;;;;5116434;28;20055;-33
2023/11/01 02:21:37;;;;;;;19.40;7.13;;;;;;;;;;5116197;28;20023;-34
2023/11/01 02:24:03;;;;;;;17.70;7.13;;;;;;;;;;5116173;28;20069;-33
2023/11/01 02:26:30;;;;;;;20.55;6.68;;;;;;;;;;5114852;28;20296;-33
2023/11/01 02:28:55;;;;;;;19.17;7.20;;;;;;;;;;5116286;28;20359;-34
2023/11/01 02:31:20;;;;;;;16.25;6.70;;;;;;;;;;5115984;28;20026;-33
2023/11/01 02:33:45;;;;;;;19.10;6.77;;;;;;;;;;5116402;28;20023;-33
2023/11/01 02:36:10;;;;;;;14.70;6.00;;;;;;;;;;5115974;28;20569;-33
2023/11/01 02:38:36;;;;;;;16.52;6.53;;;;;;;;;;5115772;28;20268;-33
2023/11/01 02:41:01;;;;;;;14.87;5.73;;;;;;;;;;5116338;28;20027;-33
2023/11/01 02:43:27;;;;;;;13.73;5.97;;;;;;;;;;5115748;28;20329;-33
2023/11/01 02:45:53;;;;;;;14.88;5.40;;;;;;;;;;5115960;28;20261;-33
2023/11/01 02:48:18;;;;;;;12.80;5.95;;;;;;;;;;5115955;28;20038;-33
2023/11/01 02:50:43;;;;;;;12.40;5.40;;;;;;;;;;5115459;28;20055;-33
2023/11/01 02:53:09;;;;;;;15.10;5.20;;;;;;;;;;5116043;28;20027;-33
2023/11/01 02:55:34;;;;;;;17.83;5.57;;;;;;;;;;5115697;28;20297;-33
2023/11/01 02:58:01;;;;;;;15.23;5.80;;;;;;;;;;5115395;28;20019;-33
2023/11/01 03:00:26;;;;;;;17.27;5.05;;;;;;;;;;5097130;28;20261;-33
2023/11/01 03:02:56;;;;;;;16.23;5.10;;;;;;;;;;5115572;28;20041;-33
2023/11/01 03:05:21;;;;;;;15.20;5.00;;;;;;;;;;5115521;28;20378;-33
2023/11/01 03:07:46;;;;;;;13.52;5.05;;;;;;;;;;5115213;28;20042;-33
2023/11/01 03:10:12;;;;;;;16.90;5.37;;;;;;;;;;5115643;28;20027;-33
2023/11/01 03:12:38;;;;;;;16.38;4.72;;;;;;;;;;5115055;28;20257;-33
2023/11/01 03:15:04;;;;;;;17.35;5.25;;;;;;;;;;5115003;28;20016;-37
2023/11/01 03:17:29;;;;;;;14.23;4.93;;;;;;;;;;5115549;28;20041;-33
2023/11/01 03:19:54;;;;;;;10.35;4.78;;;;;;;;;;5114954;28;20122;-33
2023/11/01 03:22:20;;;;;;;13.67;4.73;;;;;;;;;;5115365;28;20022;-33
2023/11/01 03:24:45;;;;;;;10.90;4.20;;;;;;;;;;5115158;28;20249;-33
2023/11/01 03:27:10;;;;;;;10.70;4.20;;;;;;;;;;5115880;28;20336;-34
2023/11/01 03:29:35;;;;;;;12.77;4.20;;;;;;;;;;5115386;28;20016;-33
2023/11/01 03:32:00;;;;;;;14.00;4.60;;;;;;;;;;5096744;28;20270;-33
2023/11/01 03:34:25;;;;;;;14.20;4.80;;;;;;;;;;5115192;28;20030;-33
2023/11/01 03:36:51;;;;;;;14.23;4.20;;;;;;;;;;5114906;28;20451;-33
2023/11/01 03:39:17;;;;;;;9.03;3.63;;;;;;;;;;5114246;28;20277;-33
2023/11/01 03:41:43;;;;;;;16.08;3.75;;;;;;;;;;5114546;28;20263;-33
2023/11/01 03:44:08;;;;;;;12.95;4.18;;;;;;;;;;5114497;28;20027;-33
2023/11/01 03:46:33;;;;;;;11.13;4.13;;;;;;;;;;5114381;28;20016;-33
2023/11/01 03:48:59;;;;;;;14.88;4.13;;;;;;;;;;5114362;28;20033;-33
2023/11/01 03:51:24;;;;;;;18.92;3.92;;;;;;;;;;5114270;28;20047;-33
2023/11/01 03:53:49;;;;;;;14.97;3.90;;;;;;;;;;5114738;28;20106;-33
2023/11/01 03:56:14;;;;;;;13.27;3.80;;;;;;;;;;5114348;28;20246;-33
2023/11/01 03:58:40;;;;;;;9.35;3.78;;;;;;;;;;5114205;28;20015;-33
2023/11/01 04:01:05;;;;;;;9.93;3.88;;;;;;;;;;5114782;28;20022;-33
2023/11/01 04:03:30;;;;;;;16.92;4.20;;;;;;;;;;5114172;28;20024;-33
2023/11/01 04:05:55;;;;;;;12.50;4.37;;;;;;;;;;5114207;28;20026;-33
2023/11/01 04:08:21;;;;;;;12.70;4.57;;;;;;;;;;5114609;28;20094;-33
2023/11/01 04:10:46;;;;;;;13.82;4.30;;;;;;;;;;5114575;28;20242;-33
2023/11/01 04:13:11;;;;;;;12.20;4.00;;;;;;;;;;5113968;28;20019;-33
2023/11/01 04:15:36;;;;;;;9.82;4.20;;;;;;;;;;5113786;28;20088;-33
2023/11/01 04:18:02;;;;;;;10.53;3.90;;;;;;;;;;5114446;28;20034;-33
2023/11/01 04:20:27;;;;;;;16.55;4.43;;;;;;;;;;5113928;28;20253;-33
2023/11/01 04:22:52;;;;;;;11.70;4.47;;;;;;;;;;5113902;28;20016;-33
2023/11/01 04:25:17;;;;;;;12.38;4.78;;;;;;;;;;5114356;28;20023;-33
2023/11/01 04:27:44;;;;;;;11.00;4.60;;;;;;;;;;5114074;28;20030;-33
2023/11/01 04:30:10;;;;;;;11.02;4.57;;;;;;;;;;5113852;28;20245;-33
2023/11/01 04:32:35;;;;;;;15.02;4.70;;;;;;;;;;5113993;28;20455;-33
2023/11/01 04:35:01;;;;;;;14.23;4.55;;;;;;;;;;5113667;28;20516;-33
2023/11/01 04:37:26;;;;;;;12.50;4.57;;;;;;;;;;5114245;28;20020;-33
2023/11/01 04:39:52;;;;;;;9.90;4.37;;;;;;;;;;5113754;28;20012;-33
2023/11/01 04:42:17;;;;;;;14.35;4.60;;;;;;;;;;5113914;28;20171;-33
2023/11/01 04:44:43;;;;;;;9.13;4.78;;;;;;;;;;5114083;28;20079;-33
2023/11/01 04:47:08;;;;;;;10.02;4.80;;;;;;;;;;5095363;28;20031;-34
2023/11/01 04:49:34;;;;;;;9.70;4.77;;;;;;;;;;5113874;28;20023;-33
2023/11/01 04:51:59;;;;;;;13.68;4.72;;;;;;;;;;5117668;28;20346;-33
2023/11/01 04:54:24;;;;;;;10.95;4.65;;;;;;;;;;5117989;28;20016;-33
2023/11/01 04:56:49;;;;;;;9.55;4.97;;;;;;;;;;5118228;28;20458;-33
2023/11/01 04:59:15;;;;;;;7.90;4.20;;;;;;;;;;5117648;28;20015;-33
2023/11/01 05:01:41;;;;;;;9.48;4.20;;;;;;;;;;5117982;28;20268;-33
2023/11/01 05:04:06;;;;;;;12.05;4.53;;;;;;;;;;5117623;28;20027;-33
2023/11/01 05:06:31;;;;;;;9.50;4.15;;;;;;;;;;5117656;28;20058;-33
2023/11/01 05:08:56;;;;;;;9.30;4.30;;;;;;;;;;5117821;28;20032;-34
2023/11/01 05:11:22;;;;;;;7.90;4.30;;;;;;;;;;5117414;28;20020;-33
2023/11/01 05:13:47;;;;;;;7.63;4.05;;;;;;;;;;5117284;28;20031;-33
2023/11/01 05:16:12;;;;;;;10.63;4.10;;;;;;;;;;5117689;28;20015;-33
2023/11/01 05:18:37;;;;;;;5.90;4.30;;;;;;;;;;5117934;28;20015;-33
2023/11/01 05:21:04;;;;;;;9.13;4.27;;;;;;;;;;5117303;28;20356;-34
2023/11/01 05:23:30;;;;;;;6.22;4.60;;;;;;;;;;5117440;28;20076;-33
2023/11/01 05:25:55;;;;;;;8.82;4.95;;;;;;;;;;5117529;28;20012;-33
2023/11/01 05:28:20;;;;;;;9.53;4.87;;;;;;;;;;5117444;28;20450;-34
2023/11/01 05:30:46;;;;;;;9.73;4.83;;;;;;;;;;5117698;28;20257;-33
2023/11/01 05:33:11;;;;;;;7.25;5.40;;;;;;;;;;5117552;28;20271;-33
2023/11/01 05:35:36;;;;;;;8.50;5.77;;;;;;;;;;5116910;28;20086;-33
2023/11/01 05:38:01;;;;;;;8.95;5.47;;;;;;;;;;5117266;28;20084;-33
2023/11/01 05:40:26;;;;;;;14.20;6.20;;;;;;;;;;5116961;28;20481;-33
2023/11/01 05:42:51;;;;;;;11.37;6.10;;;;;;;;;;5117446;28;20023;-33
2023/11/01 05:45:17;;;;;;;9.30;6.43;;;;;;;;;;5116846;28;20096;-33
2023/11/01 05:47:49;;;;;;;7.88;6.40;;;;;;;;;;5116784;28;20028;-33
2023/11/01 05:50:14;;;;;;;9.48;6.80;;;;;;;;;;5116768;28;20039;-33
2023/11/01 05:52:39;;;;;;;9.70;6.57;;;;;;;;;;5116718;28;20031;-33
2023/11/01 05:55:06;;;;;;;12.18;6.95;;;;;;;;;;5116856;28;20281;-33
2023/11/01 05:57:31;;;;;;;9.85;7.25;;;;;;;;;;5116618;28;20015;-33
2023/11/01 05:59:56;;;;;;;10.73;6.97;;;;;;;;;;5117120;28;20046;-33
2023/11/01 06:02:22;;;;;;;10.90;7.10;;;;;;;;;;5116884;28;20241;-33
2023/11/01 06:04:47;;;;;;;10.07;7.00;;;;;;;;;;5116393;28;20437;-33
2023/11/01 06:07:12;;;;;;;10.23;7.57;;;;;;;;;;5116988;28;20249;-33
2023/11/01 06:09:37;;;;;;;14.07;7.95;;;;;;;;;;5116380;28;20377;-33
2023/11/01 06:12:05;;;;;;;16.00;8.07;;;;;;;;;;5116348;28;20020;-33
2023/11/01 06:14:30;;;;;;;13.38;8.48;;;;;;;;;;5116776;28;20457;-33
2023/11/01 06:16:56;;;;;;;14.77;8.97;;;;;;;;;;5116278;28;20043;-33
2023/11/01 06:19:21;;;;;;;15.65;8.82;;;;;;;;;;5116736;28;20289;-33
2023/11/01 06:21:46;;;;;;;13.90;9.00;;;;;;;;;;5116742;28;20020;-33
2023/11/01 06:24:13;;;;;;;19.97;9.37;;;;;;;;;;5116690;28;20249;-33
2023/11/01 06:26:39;;;;;;;14.00;8.77;;;;;;;;;;5116284;28;20628;-33
2023/11/01 06:29:04;;;;;;;16.90;9.38;;;;;;;;;;5116051;28;20020;-34
2023/11/01 06:31:29;;;;;;;19.80;9.40;;;;;;;;;;5116268;28;20028;-33
2023/11/01 06:33:54;;;;;;;16.07;8.93;;;;;;;;;;5115871;28;20076;-33
2023/11/01 06:36:20;;;;;;;15.98;8.43;;;;;;;;;;5115839;28;20380;-33
2023/11/01 06:38:45;;;;;;;16.20;8.50;;;;;;;;;;5115861;28;20031;-34
2023/11/01 06:41:11;;;;;;;16.80;7.90;;;;;;;;;;5115716;28;20026;-33
2023/11/01 06:43:36;;;;;;;19.23;8.30;;;;;;;;;;5116352;28;20015;-33
2023/11/01 06:46:01;;;;;;;19.97;7.13;;;;;;;;;;5115992;28;20095;-33
2023/11/01 06:48:26;;;;;;;14.03;7.17;;;;;;;;;;5115901;28;20322;-33
2023/11/01 06:50:52;;;;;;;20.60;7.57;;;;;;;;;;5115784;28;20285;-34
2023/11/01 06:53:17;;;;;;;13.52;6.85;;;;;;;;;;5097536;28;20364;-33
2023/11/01 06:55:42;;;;;;;20.20;7.03;;;;;;;;;;5116037;28;20074;-34
2023/11/01 06:58:07;;;;;;;18.80;6.80;;;;;;;;;;5116005;28;20245;-33
2023/11/01 07:00:33;;;;;;;16.17;6.63;;;;;;;;;;5115611;28;20305;-34
2023/11/01 07:02:58;;;;;;;16.35;7.05;;;;;;;;;;5115297;28;20023;-33
2023/11/01 07:05:24;;;;;;;15.37;6.33;;;;;;;;;;5097034;28;20019;-34
2023/11/01 07:07:49;;;;;;;15.97;6.33;;;;;;;;;;5115283;28;20759;-33
2023/11/01 07:10:14;;;;;;;16.90;6.07;;;;;;;;;;5115240;28;20015;-34
2023/11/01 07:12:39;;;;;;;14.13;6.13;;;;;;;;;;5114381;28;20624;-34
2023/11/01 07:15:07;;;;;;;21.77;5.90;;;;;;;;;;5115580;28;20055;-33
2023/11/01 07:17:33;;;;;;;26.02;6.32;;;;;;;;;;5114964;28;20102;-33
2023/11/01 07:19:58;;;;;;;16.17;5.22;;;;;;;;;;5114933;28;20054;-34
2023/11/01 07:22:23;;;;;;;18.00;5.53;;;;;;;;;;5115505;28;20020;-33
2023/11/01 07:24:49;;;;;;;17.40;5.05;;;;;;;;;;5114723;28;20301;-34
2023/11/01 07:27:14;;;;;;;19.25;5.95;;;;;;;;;;5115004;28;20107;-32
2023/11/01 07:29:39;;;;;;;20.67;6.23;;;;;;;;;;5114339;28;20055;-32
2023/11/01 07:32:04;;;;;;;29.50;5.87;;;;;;;;;;5113979;28;20092;-33
2023/11/01 07:34:30;;;;;;;14.75;5.55;;;;;;;;;;5114561;28;20020;-34
2023/11/01 07:36:55;;;;;;;19.40;5.53;;;;;;;;;;5114914;28;20076;-34
2023/11/01 07:39:20;;;;;;;14.70;5.20;;;;;;;;;;5112633;28;20253;-34
2023/11/01 07:41:45;;;;;;;20.95;5.63;;;;;;;;;;5112402;28;20356;-33
2023/11/01 07:44:11;;;;;;;18.77;5.10;;;;;;;;;;5113231;28;20027;-34
2023/11/01 07:46:36;;;;;;;21.38;5.15;;;;;;;;;;5113278;28;20402;-33
2023/11/01 07:49:01;;;;;;;13.30;5.00;;;;;;;;;;5113566;28;20012;-34
2023/11/01 07:51:27;;;;;;;19.40;5.43;;;;;;;;;;5112345;28;20523;-33
2023/11/01 07:53:52;;;;;;;19.48;4.85;;;;;;;;;;5113549;28;20261;-33
2023/11/01 07:56:18;;;;;;;23.23;4.65;;;;;;;;;;5113028;28;20022;-34
2023/11/01 07:58:43;;;;;;;18.03;4.90;;;;;;;;;;5112493;28;20042;-33
2023/11/01 08:01:08;;;;;;;14.43;4.40;;;;;;;;;;5113526;28;20293;-34
2023/11/01 08:03:35;;;;;;;14.52;3.78;;;;;;;;;;5114459;28;20068;-34
2023/11/01 08:06:01;;;;;;;18.05;4.00;;;;;;;;;;5114402;28;20019;-34
2023/11/01 08:08:26;;;;;;;14.52;3.80;;;;;;;;;;5114100;28;20015;-34
2023/11/01 08:10:51;;;;;;;17.30;3.43;;;;;;;;;;5114403;28;20020;-34
2023/11/01 08:13:16;;;;;;;19.70;3.67;;;;;;;;;;5114012;28;20743;-34
2023/11/01 08:15:41;;;;;;;13.35;3.35;;;;;;;;;;5114265;28;20368;-35
2023/11/01 08:18:09;;;;;;;19.33;3.97;;;;;;;;;;5114293;28;20051;-34
2023/11/01 08:20:35;;;;;;;18.27;3.30;;;;;;;;;;5114008;28;20402;-34
2023/11/01 08:23:00;;;;;;;14.55;3.30;;;;;;;;;;5114459;28;20031;-33
2023/11/01 08:25:25;;;;;;;15.90;3.37;;;;;;;;;;5112991;28;20462;-33
2023/11/01 08:27:50;;;;;;;14.93;3.13;;;;;;;;;;5114215;28;20265;-33
2023/11/01 08:30:16;;;;;;;14.75;3.17;;;;;;;;;;5113943;28;20016;-33
2023/11/01 08:32:41;;;;;;;17.08;3.17;;;;;;;;;;5113606;28;20119;-33
2023/11/01 08:35:08;;;;;;;17.67;3.33;;;;;;;;;;5113930;28;20031;-33
2023/11/01 08:37:33;;;;;;;12.77;3.10;;;;;;;;;;5114044;28;20077;-34
2023/11/01 08:39:58;;;;;;;25.52;3.47;;;;;;;;;;5114018;28;20008;-33
2023/11/01 08:42:23;;;;;;;19.83;3.03;;;;;;;;;;5113729;28;20026;-32
2023/11/01 08:44:48;;;;;;;13.90;2.80;;;;;;;;;;5113672;28;20519;-34
2023/11/01 08:47:31;;;;;;;14.57;3.03;;;;;;;;;;5113673;28;20024;-34
2023/11/01 08:49:56;;;;;;;15.85;3.40;;;;;;;;;;5095212;28;20432;-33
2023/11/01 08:52:21;;;;;;;11.07;2.57;;;;;;;;;;5114063;28;20023;-33
2023/11/01 08:54:47;;;;;;;13.70;3.17;;;;;;;;;;5113504;28;20028;-32
2023/11/01 08:57:12;;;;;;;13.70;2.88;;;;;;;;;;5113705;28;20072;-34
2023/11/01 08:59:39;;;;;;;16.67;3.73;;;;;;;;;;5114058;28;20076;-33
2023/11/01 09:02:04;;;;;;;11.05;3.38;;;;;;;;;;5114098;28;20022;-33
2023/11/01 09:04:29;;;;;;;21.30;4.00;;;;;;;;;;5113763;28;20016;-33
2023/11/01 09:06:54;;;;;;;21.47;3.60;;;;;;;;;;5112110;28;20347;-32
2023/11/01 09:09:19;;;;;;;15.43;3.03;;;;;;;;;;5114009;28;20145;-33
2023/11/01 09:11:44;;;;;;;9.00;2.97;;;;;;;;;;5113325;28;20747;-33
2023/11/01 09:14:10;;;;;;;19.33;3.50;;;;;;;;;;5095130;28;20020;-34
2023/11/01 09:16:35;;;;;;;16.10;3.70;;;;;;;;;;5113135;28;20012;-33
2023/11/01 09:19:00;;;;;;;15.27;3.30;;;;;;;;;;5113137;28;20091;-34
2023/11/01 09:21:25;;;;;;;10.47;3.00;;;;;;;;;;5113082;28;20098;-34
2023/11/01 09:23:50;;;;;;;15.60;3.27;;;;;;;;;;5112854;28;20416;-34
2023/11/01 09:26:17;;;;;;;13.30;3.00;;;;;;;;;;5112943;28;20272;-34
2023/11/01 09:28:42;;;;;;;17.02;3.08;;;;;;;;;;5112984;28;20016;-34
2023/11/01 09:31:07;;;;;;;12.57;2.92;;;;;;;;;;5094817;28;20016;-34
2023/11/01 09:33:32;;;;;;;12.93;2.60;;;;;;;;;;5113501;28;20073;-34
2023/11/01 09:35:57;;;;;;;10.23;2.83;;;;;;;;;;5114488;28;20028;-34
2023/11/01 09:38:22;;;;;;;10.57;2.63;;;;;;;;;;5118054;28;20016;-34
2023/11/01 09:40:48;;;;;;;15.47;2.90;;;;;;;;;;5117514;28;20027;-34
2023/11/01 09:43:15;;;;;;;17.67;3.55;;;;;;;;;;5098677;28;20463;-34
2023/11/01 09:45:40;;;;;;;11.07;2.72;;;;;;;;;;5116836;28;20019;-32
2023/11/01 09:48:05;;;;;;;13.50;2.67;;;;;;;;;;5116846;28;20447;-33
2023/11/01 09:50:35;;;;;;;10.73;2.33;;;;;;;;;;5116812;28;20773;-34
2023/11/01 09:53:02;;;;;;;13.68;2.60;;;;;;;;;;5116992;28;20027;-32
2023/11/01 09:55:27;;;;;;;18.27;2.78;;;;;;;;;;5116598;28;20046;-34
2023/11/01 09:57:53;;;;;;;15.50;2.70;;;;;;;;;;5116551;28;20012;-35
2023/11/01 10:00:19;;;;;;;11.85;2.50;;;;;;;;;;5117167;28;20023;-34
2023/11/01 10:02:44;;;;;;;9.88;2.38;;;;;;;;;;5116854;28;20016;-34
2023/11/01 10:05:09;;;;;;;11.57;2.20;;;;;;;;;;5116525;28;20027;-34
2023/11/01 10:07:35;;;;;;;13.43;2.33;;;;;;;;;;5116389;28;20015;-34
2023/11/01 10:10:01;;;;;;;8.17;1.90;;;;;;;;;;5116288;28;20285;-32
2023/11/01 10:12:26;;;;;;;8.43;2.20;;;;;;;;;;5116203;28;20265;-32
2023/11/01 10:14:51;;;;;;;12.85;2.33;;;;;;;;;;5116465;28;20027;-33
2023/11/01 10:17:16;;;;;;;10.63;2.40;;;;;;;;;;5116455;28;20030;-31
2023/11/01 10:19:44;;;;;;;12.05;2.08;;;;;;;;;;5115974;28;20091;-32
2023/11/01 10:22:10;;;;;;;11.43;2.13;;;;;;;;;;5117053;28;20015;-32
2023/11/01 10:24:35;;;;;;;12.30;2.10;;;;;;;;;;5115936;28;20024;-32
2023/11/01 10:27:00;;;;;;;7.83;1.90;;;;;;;;;;5116341;28;20031;-32
2023/11/01 10:29:27;;;;;;;12.33;2.30;;;;;;;;;;5115710;28;20023;-34
2023/11/01 10:31:53;;;;;;;9.88;1.95;;;;;;;;;;5115762;28;20463;-32
2023/11/01 10:34:18;;;;;;;10.88;1.88;;;;;;;;;;5098235;28;20019;-33
2023/11/01 10:36:50;;;;;;;9.25;1.90;;;;;;;;;;5116338;28;20026;-32
2023/11/01 10:39:17;;;;;;;11.63;1.83;;;;;;;;;;5115811;28;20019;-33
2023/11/01 10:41:42;;;;;;;11.88;2.20;;;;;;;;;;5116226;28;20261;-32
2023/11/01 10:44:07;;;;;;;8.18;2.00;;;;;;;;;;5115640;28;20020;-33
2023/11/01 10:46:33;;;;;;;12.23;2.30;;;;;;;;;;5115754;28;20061;-32
2023/11/01 10:48:58;;;;;;;9.77;1.83;;;;;;;;;;5114508;28;20047;-32
2023/11/01 10:51:23;;;;;;;12.20;1.80;;;;;;;;;;5115308;28;20312;-33
2023/11/01 10:53:49;;;;;;;7.32;1.55;;;;;;;;;;5115447;28;20032;-32
2023/11/01 10:56:14;;;;;;;10.50;2.05;;;;;;;;;;5114925;28;20415;-32
2023/11/01 10:58:42;;;;;;;12.97;2.17;;;;;;;;;;5115379;28;20523;-33
2023/11/01 11:01:20;;;;;;;14.27;2.55;;;;;;;;;;5096940;28;20069;-32
2023/11/01 11:03:49;;;;;;;7.00;1.88;;;;;;;;;;5115828;28;20531;-33
2023/11/01 11:06:17;;;;;;;10.38;2.20;;;;;;;;;;5115103;28;20032;-33
2023/11/01 11:08:42;;;;;;;8.75;1.83;;;;;;;;;;5096778;28;20035;-32
2023/11/01 11:11:17;;;;;;;10.43;2.00;;;;;;;;;;5115013;28;20023;-32
2023/11/01 11:13:43;;;;;;;6.75;1.55;;;;;;;;;;5115330;28;20095;-33
2023/11/01 11:16:12;;;;;;;8.45;2.10;;;;;;;;;;5114899;28;20098;-32
2023/11/01 11:18:47;;;;;;;12.35;1.92;;;;;;;;;;5114839;28;20026;-32
2023/11/01 11:21:31;;;;;;;10.23;1.73;;;;;;;;;;5114951;28;20031;-32
2023/11/01 11:23:57;;;;;;;9.73;1.90;;;;;;;;;;5114506;28;20477;-32
2023/11/01 11:26:37;;;;;;;11.77;2.20;;;;;;;;;;5114690;28;20474;-33
2023/11/01 11:29:03;;;;;;;10.95;2.15;;;;;;;;;;5114439;28;20016;-32
2023/11/01 11:31:48;;;;;;;6.90;1.70;;;;;;;;;;5114333;28;20025;-32
2023/11/01 11:34:14;;;;;;;11.38;1.88;;;;;;;;;;5114082;28;20023;-33
2023/11/01 11:36:59;;;;;;;14.35;2.28;;;;;;;;;;5114391;28;20026;-32
2023/11/01 11:39:44;;;;;;;10.88;2.00;;;;;;;;;;5114389;28;20055;-32
2023/11/01 11:42:29;;;;;;;12.88;1.90;;;;;;;;;;5114333;28;20020;-33
2023/11/01 11:45:01;;;;;;;8.57;1.67;;;;;;;;;;5114338;28;20023;-33
2023/11/01 11:47:29;;;;;;;7.68;1.92;;;;;;;;;;5114387;28;20018;-32
2023/11/01 11:50:15;;;;;;;7.85;1.92;;;;;;;;;;5114214;28;20024;-32
2023/11/01 11:52:43;;;;;;;14.07;2.08;;;;;;;;;;5113785;28;20054;-33
2023/11/01 11:55:08;;;;;;;5.30;1.65;;;;;;;;;;5114440;28;20019;-33
2023/11/01 11:57:34;;;;;;;11.33;2.10;;;;;;;;;;5114606;28;20023;-33
2023/11/01 12:00:00;;;;;;;11.23;2.08;;;;;;;;;;5113895;28;20426;-33
2023/11/01 12:02:25;;;;;;;8.73;1.60;;;;;;;;;;5114237;28;20044;-32
2023/11/01 12:04:51;;;;;;;11.60;2.30;;;;;;;;;;5114677;28;20058;-33
2023/11/01 12:07:21;;;;;;;9.63;1.88;;;;;;;;;;5114112;28;20574;-32
2023/11/01 12:09:47;;;;;;;9.02;2.00;;;;;;;;;;5114021;28;20016;-32
2023/11/01 12:12:13;;;;;;;9.45;1.80;;;;;;;;;;5114477;28;20027;-33
2023/11/01 12:14:39;;;;;;;11.18;1.77;;;;;;;;;;5113925;28;20020;-33
2023/11/01 12:17:05;;;;;;;7.28;1.58;;;;;;;;;;5114162;28;20028;-33
2023/11/01 12:19:32;;;;;;;7.68;1.88;;;;;;;;;;5114185;28;20366;-33
2023/11/01 12:21:58;;;;;;;7.75;2.15;;;;;;;;;;5114227;28;20019;-33
2023/11/01 12:24:28;;;;;;;9.73;1.70;;;;;;;;;;5113821;28;20076;-33
2023/11/01 12:27:06;;;;;;;13.43;1.92;;;;;;;;;;5114349;28;20020;-33
2023/11/01 12:29:32;;;;;;;8.95;1.73;;;;;;;;;;5112758;28;20024;-33
2023/11/01 12:32:00;;;;;;;13.95;2.25;;;;;;;;;;5114389;28;20528;-32
2023/11/01 12:34:26;;;;;;;6.90;1.70;;;;;;;;;;5113754;28;20061;-32
2023/11/01 12:37:05;;;;;;;11.55;1.92;;;;;;;;;;5114310;28;20366;-32
2023/11/01 12:39:31;;;;;;;8.23;1.92;;;;;;;;;;5112502;28;20075;-31
2023/11/01 12:41:56;;;;;;;6.30;1.70;;;;;;;;;;5113893;28;20007;-32
2023/11/01 12:44:24;;;;;;;7.85;1.95;;;;;;;;;;5113639;28;20477;-33
2023/11/01 12:46:50;;;;;;;7.43;1.73;;;;;;;;;;5113655;28;20035;-33
2023/11/01 12:49:15;;;;;;;9.40;2.00;;;;;;;;;;5113516;28;20019;-32
2023/11/01 12:51:40;;;;;;;8.00;2.10;;;;;;;;;;5113329;28;20046;-33
2023/11/01 12:54:06;;;;;;;10.83;2.20;;;;;;;;;;5113424;28;20493;-33
2023/11/01 12:56:32;;;;;;;9.70;1.92;;;;;;;;;;5113751;28;20043;-32
2023/11/01 12:58:57;;;;;;;9.30;2.03;;;;;;;;;;5113477;28;20412;-32
2023/11/01 13:01:22;;;;;;;6.70;1.83;;;;;;;;;;5114078;28;20024;-32
2023/11/01 13:03:47;;;;;;;6.90;2.00;;;;;;;;;;5114006;28;20257;-32
2023/11/01 13:06:12;;;;;;;8.27;1.60;;;;;;;;;;5113782;28;20076;-33
2023/11/01 13:08:38;;;;;;;11.30;2.10;;;;;;;;;;5113474;28;20369;-33
2023/11/01 13:11:04;;;;;;;13.88;1.85;;;;;;;;;;5114892;28;20035;-33
2023/11/01 13:13:29;;;;;;;10.88;1.95;;;;;;;;;;5117423;28;20090;-32
2023/11/01 13:15:55;;;;;;;8.45;2.30;;;;;;;;;;5117369;28;20102;-32
2023/11/01 13:18:21;;;;;;;8.30;1.85;;;;;;;;;;5117346;28;20039;-33
2023/11/01 13:20:46;;;;;;;13.30;1.90;;;;;;;;;;5117824;28;20479;-33
2023/11/01 13:23:11;;;;;;;5.70;1.50;;;;;;;;;;5117266;28;20015;-35
2023/11/01 13:25:38;;;;;;;5.90;1.40;;;;;;;;;;5117781;28;20020;-32
2023/11/01 13:28:03;;;;;;;7.03;1.83;;;;;;;;;;5117096;28;20026;-32
2023/11/01 13:30:28;;;;;;;7.75;1.70;;;;;;;;;;5117146;28;20024;-33
2023/11/01 13:32:53;;;;;;;5.27;1.47;;;;;;;;;;5117376;28;20462;-33
2023/11/01 13:35:19;;;;;;;6.20;1.60;;;;;;;;;;5116991;28;20305;-33
2023/11/01 13:37:44;;;;;;;10.23;1.93;;;;;;;;;;5117053;28;20038;-33
2023/11/01 13:40:09;;;;;;;7.17;1.60;;;;;;;;;;5117470;28;20257;-33
2023/11/01 13:42:34;;;;;;;8.93;1.70;;;;;;;;;;5117583;28;20089;-33
2023/11/01 13:45:00;;;;;;;8.87;1.97;;;;;;;;;;5116744;28;20103;-34
2023/11/01 13:47:25;;;;;;;10.48;1.80;;;;;;;;;;5116777;28;20016;-34
2023/11/01 13:49:51;;;;;;;9.97;2.03;;;;;;;;;;5117290;28;20024;-34
2023/11/01 13:52:16;;;;;;;6.03;1.48;;;;;;;;;;5116503;28;20312;-33
2023/11/01 13:54:41;;;;;;;5.03;1.47;;;;;;;;;;5116771;28;20023;-34
2023/11/01 13:57:07;;;;;;;4.77;1.40;;;;;;;;;;5117169;28;20284;-33
2023/11/01 13:59:32;;;;;;;7.00;1.60;;;;;;;;;;5116797;28;20106;-32
2023/11/01 14:01:57;;;;;;;9.20;1.57;;;;;;;;;;5116527;28;20099;-33
2023/11/01 14:04:23;;;;;;;6.65;1.60;;;;;;;;;;5116761;28;20268;-33
2023/11/01 14:06:48;;;;;;;10.45;1.50;;;;;;;;;;5116741;28;20047;-33
2023/11/01 14:09:14;;;;;;;6.57;1.45;;;;;;;;;;5116668;28;20020;-33
2023/11/01 14:11:39;;;;;;;6.93;1.60;;;;;;;;;;5116559;28;20024;-33
2023/11/01 14:14:05;;;;;;;7.70;1.60;;;;;;;;;;5116201;28;20015;-33
2023/11/01 14:16:31;;;;;;;7.72;1.45;;;;;;;;;;5117332;28;20387;-33
2023/11/01 14:18:56;;;;;;;4.45;1.30;;;;;;;;;;5116417;28;20038;-33
2023/11/01 14:21:25;;;;;;;11.00;1.73;;;;;;;;;;5116312;28;20338;-34
2023/11/01 14:23:50;;;;;;;8.25;1.60;;;;;;;;;;5116126;28;20038;-33
2023/11/01 14:26:15;;;;;;;7.35;1.40;;;;;;;;;;5116053;28;20467;-33